Time;durP1;ratioP1;P1;durP2;ratioP2;P2;SDS_P1;SDS_P2;PMS_P1;PMS_P2;Temp;Humidity;BMP_temperature;BMP_pressure;BME280_temperature;BME280_humidity;BME280_pressure;Samples;Min_cycle;Max_cycle;Signal;HPM_P1;HPM_P2
2022/04/28 00:02:25;;;;;;;;;;;;;;;;;;5073460;28;812;-69
2022/04/28 00:04:50;;;;;;;;;;;;;;;;;;5071285;28;1906;-69
2022/04/28 00:07:15;;;;;;;;;;;;;;;;;;5073202;28;825;-69
2022/04/28 00:09:41;;;;;;;;;;;;;;;;;;5070245;28;1166;-69
2022/04/28 00:12:08;;;;;;;;;;;;;;;;;;5072655;28;865;-69
2022/04/28 00:14:33;;;;;;;;;;;;;;;;;;5071580;28;857;-70
2022/04/28 00:16:58;;;;;;;;;;;;;;;;;;5072892;28;887;-69
2022/04/28 00:19:24;;;;;;;;;;;;;;;;;;5073056;28;888;-70
2022/04/28 00:21:49;;;;;;;;;;;;;;;;;;5071242;28;1231;-69
2022/04/28 00:24:14;;;;;;;;;;;;;;;;;;5071732;28;1123;-69
2022/04/28 00:26:39;;;;;;;;;;;;;;;;;;5072733;28;1901;-69
2022/04/28 00:29:05;;;;;;;;;;;;;;;;;;5072951;28;904;-69
2022/04/28 00:31:30;;;;;;;;;;;;;;;;;;5072782;28;994;-69
2022/04/28 00:33:55;;;;;;;;;;;;;;;;;;5071787;28;840;-69
2022/04/28 00:36:21;;;;;;;;;;;;;;;;;;5071383;28;1170;-70
2022/04/28 00:38:46;;;;;;;;;;;;;;;;;;5072722;28;888;-69
2022/04/28 00:41:11;;;;;;;;;;;;;;;;;;5054578;28;1779;-69
2022/04/28 00:43:47;;;;;;;;;;;;;;;;;;5070715;28;940;-69
2022/04/28 00:46:12;;;;;;;;;;;;;;;;;;5072518;28;1910;-70
2022/04/28 00:51:21;;;;;;;;;;;;;;;;;;5071978;28;1332;-69
2022/04/28 00:53:48;;;;;;;;;;;;;;;;;;5071453;28;1037;-69
2022/04/28 00:56:14;;;;;;;;;;;;;;;;;;5071378;28;777;-69
2022/04/28 00:58:39;;;;;;;;;;;;;;;;;;5071232;28;901;-69
2022/04/28 01:01:05;;;;;;;;;;;;;;;;;;5071406;28;904;-69
2022/04/28 01:03:30;;;;;;;;;;;;;;;;;;5071372;28;1002;-70
2022/04/28 01:05:56;;;;;;;;;;;;;;;;;;5069483;28;1918;-69
2022/04/28 01:08:21;;;;;;;;;;;;;;;;;;5070223;28;848;-69
2022/04/28 01:10:47;;;;;;;;;;;;;;;;;;5069711;28;852;-69
2022/04/28 01:13:12;;;;;;;;;;;;;;;;;;5053107;28;1317;-69
2022/04/28 01:15:47;;;;;;;;;;;;;;;;;;5053238;28;1187;-69
2022/04/28 01:18:13;;;;;;;;;;;;;;;;;;5071396;28;853;-69
2022/04/28 01:20:39;;;;;;;;;;;;;;;;;;5069492;28;1383;-69
2022/04/28 01:23:04;;;;;;;;;;;;;;;;;;5071275;28;943;-70
2022/04/28 01:25:30;;;;;;;;;;;;;;;;;;5069959;28;1968;-69
2022/04/28 01:27:56;;;;;;;;;;;;;;;;;;5070663;28;924;-69
2022/04/28 01:30:21;;;;;;;;;;;;;;;;;;5071223;28;853;-69
2022/04/28 01:32:46;;;;;;;;;;;;;;;;;;5070672;28;959;-69
2022/04/28 01:35:11;;;;;;;;;;;;;;;;;;5071115;28;911;-69
2022/04/28 01:37:37;;;;;;;;;;;;;;;;;;5069922;28;1252;-69
2022/04/28 01:40:03;;;;;;;;;;;;;;;;;;5070760;28;797;-69
2022/04/28 01:42:28;;;;;;;;;;;;;;;;;;5071313;28;908;-69
2022/04/28 01:44:54;;;;;;;;;;;;;;;;;;5070586;28;1902;-69
2022/04/28 01:47:19;;;;;;;;;;;;;;;;;;5071686;28;761;-69
2022/04/28 01:49:45;;;;;;;;;;;;;;;;;;5071437;28;1065;-69
2022/04/28 01:54:57;;;;;;;;;;;;;;;;;;5071448;28;744;-69
2022/04/28 01:57:23;;;;;;;;;;;;;;;;;;5071802;28;801;-69
2022/04/28 01:59:48;;;;;;;;;;;;;;;;;;5071240;28;1002;-69
2022/04/28 02:02:13;;;;;;;;;;;;;;;;;;5070684;28;800;-69
2022/04/28 02:04:38;;;;;;;;;;;;;;;;;;5071620;28;1906;-69
2022/04/28 02:07:04;;;;;;;;;;;;;;;;;;5071349;28;999;-69
2022/04/28 02:09:29;;;;;;;;;;;;;;;;;;5071551;28;1057;-70
2022/04/28 02:11:55;;;;;;;;;;;;;;;;;;5071562;28;919;-69
2022/04/28 02:14:20;;;;;;;;;;;;;;;;;;5072221;28;865;-69
2022/04/28 02:16:45;;;;;;;;;;;;;;;;;;5070800;28;923;-69
2022/04/28 02:19:10;;;;;;;;;;;;;;;;;;5070530;28;741;-69
2022/04/28 02:21:35;;;;;;;;;;;;;;;;;;5072484;28;856;-68
2022/04/28 02:24:01;;;;;;;;;;;;;;;;;;5071728;28;867;-69
2022/04/28 02:26:26;;;;;;;;;;;;;;;;;;5070541;28;1965;-69
2022/04/28 02:28:52;;;;;;;;;;;;;;;;;;5069865;28;1292;-69
2022/04/28 02:31:17;;;;;;;;;;;;;;;;;;5071068;28;1300;-69
2022/04/28 02:33:42;;;;;;;;;;;;;;;;;;5075727;28;820;-69
2022/04/28 02:36:07;;;;;;;;;;;;;;;;;;5075145;28;891;-69
2022/04/28 02:38:33;;;;;;;;;;;;;;;;;;5074015;28;1348;-69
2022/04/28 02:40:58;;;;;;;;;;;;;;;;;;5074884;28;844;-69
2022/04/28 02:43:23;;;;;;;;;;;;;;;;;;5075367;28;951;-69
2022/04/28 02:45:49;;;;;;;;;;;;;;;;;;5074676;28;1974;-69
2022/04/28 02:48:14;;;;;;;;;;;;;;;;;;5074600;28;880;-70
2022/04/28 02:50:40;;;;;;;;;;;;;;;;;;5074916;28;1702;-69
2022/04/28 02:53:05;;;;;;;;;;;;;;;;;;5074538;28;849;-69
2022/04/28 02:55:30;;;;;;;;;;;;;;;;;;5074956;28;1027;-69
2022/04/28 02:57:56;;;;;;;;;;;;;;;;;;5072383;28;1278;-69
2022/04/28 03:00:21;;;;;;;;;;;;;;;;;;5075141;28;840;-69
2022/04/28 03:02:46;;;;;;;;;;;;;;;;;;5074493;28;853;-69
2022/04/28 03:05:12;;;;;;;;;;;;;;;;;;5072662;28;1910;-69
2022/04/28 03:13:11;;;;;;;;;;;;;;;;;;5073493;28;746;-69
2022/04/28 03:15:39;;;;;;;;;;;;;;;;;;5073158;28;1003;-68
2022/04/28 03:18:04;;;;;;;;;;;;;;;;;;5073851;28;774;-69
2022/04/28 03:20:29;;;;;;;;;;;;;;;;;;5073031;28;1042;-68
2022/04/28 03:22:55;;;;;;;;;;;;;;;;;;5073366;28;825;-69
2022/04/28 03:25:20;;;;;;;;;;;;;;;;;;5072869;28;1959;-69
2022/04/28 03:27:45;;;;;;;;;;;;;;;;;;5074267;28;971;-69
2022/04/28 03:30:10;;;;;;;;;;;;;;;;;;5072079;28;1035;-69
2022/04/28 03:32:36;;;;;;;;;;;;;;;;;;5074747;28;793;-69
2022/04/28 03:35:01;;;;;;;;;;;;;;;;;;5073548;28;738;-69
2022/04/28 03:37:26;;;;;;;;;;;;;;;;;;5074321;28;825;-69
2022/04/28 03:39:52;;;;;;;;;;;;;;;;;;5074197;28;864;-69
2022/04/28 03:42:20;;;;;;;;;;;;;;;;;;5074297;28;954;-69
2022/04/28 03:44:45;;;;;;;;;;;;;;;;;;5074273;28;1909;-69
2022/04/28 03:47:11;;;;;;;;;;;;;;;;;;5073799;28;919;-69
2022/04/28 03:49:36;;;;;;;;;;;;;;;;;;5074128;28;1224;-69
2022/04/28 03:52:02;;;;;;;;;;;;;;;;;;5074049;28;839;-69
2022/04/28 03:54:27;;;;;;;;;;;;;;;;;;5074142;28;1329;-69
2022/04/28 03:56:52;;;;;;;;;;;;;;;;;;5072696;28;1043;-69
2022/04/28 03:59:17;;;;;;;;;;;;;;;;;;5072766;28;1414;-69
2022/04/28 04:01:43;;;;;;;;;;;;;;;;;;5073785;28;880;-69
2022/04/28 04:04:08;;;;;;;;;;;;;;;;;;5074133;28;1065;-69
2022/04/28 04:06:34;;;;;;;;;;;;;;;;;;5072660;28;1914;-69
2022/04/28 04:09:00;;;;;;;;;;;;;;;;;;5064141;28;1246;-69
2022/04/28 04:11:25;;;;;;;;;;;;;;;;;;5053778;28;973;-69
2022/04/28 04:13:50;;;;;;;;;;;;;;;;;;5053590;28;989;-69
2022/04/28 04:16:15;;;;;;;;;;;;;;;;;;5052655;28;1034;-69
2022/04/28 04:18:41;;;;;;;;;;;;;;;;;;5052218;28;1011;-69
2022/04/28 04:21:06;;;;;;;;;;;;;;;;;;5052590;28;920;-69
2022/04/28 04:23:31;;;;;;;;;;;;;;;;;;5035393;28;1183;-69
2022/04/28 04:25:57;;;;;;;;;;;;;;;;;;5052567;28;1969;-69
2022/04/28 04:28:22;;;;;;;;;;;;;;;;;;5051486;28;887;-69
2022/04/28 04:33:32;;;;;;;;;;;;;;;;;;5052828;28;663;-69
2022/04/28 04:35:57;;;;;;;;;;;;;;;;;;5052411;28;1022;-69
2022/04/28 04:38:22;;;;;;;;;;;;;;;;;;5051339;28;833;-68
2022/04/28 04:40:47;;;;;;;;;;;;;;;;;;5052904;28;893;-69
2022/04/28 04:43:15;;;;;;;;;;;;;;;;;;5052107;28;1030;-69
2022/04/28 04:45:42;;;;;;;;;;;;;;;;;;5063334;28;1965;-69
2022/04/28 04:48:08;;;;;;;;;;;;;;;;;;5071937;28;876;-69
2022/04/28 04:50:33;;;;;;;;;;;;;;;;;;5072202;28;1287;-69
2022/04/28 04:52:58;;;;;;;;;;;;;;;;;;5072026;28;1116;-69
2022/04/28 04:55:27;;;;;;;;;;;;;;;;;;5071132;28;916;-69
2022/04/28 04:57:52;;;;;;;;;;;;;;;;;;5072366;28;868;-69
2022/04/28 05:00:18;;;;;;;;;;;;;;;;;;5070346;28;916;-69
2022/04/28 05:02:43;;;;;;;;;;;;;;;;;;5072280;28;1179;-69
2022/04/28 05:05:09;;;;;;;;;;;;;;;;;;5071931;28;1918;-68
2022/04/28 05:07:34;;;;;;;;;;;;;;;;;;5072064;28;844;-69
2022/04/28 05:09:59;;;;;;;;;;;;;;;;;;5071535;28;989;-69
2022/04/28 05:12:24;;;;;;;;;;;;;;;;;;5071291;28;868;-69
2022/04/28 05:14:50;;;;;;;;;;;;;;;;;;5053409;28;1453;-69
2022/04/28 05:17:16;;;;;;;;;;;;;;;;;;5069823;28;1154;-69
2022/04/28 05:19:42;;;;;;;;;;;;;;;;;;5071392;28;899;-69
2022/04/28 05:22:07;;;;;;;;;;;;;;;;;;5071143;28;662;-69
2022/04/28 05:24:33;;;;;;;;;;;;;;;;;;5072280;28;1905;-69
2022/04/28 05:26:58;;;;;;;;;;;;;;;;;;5070277;28;974;-68
2022/04/28 05:29:23;;;;;;;;;;;;;;;;;;5072045;28;841;-69
2022/04/28 05:31:49;;;;;;;;;;;;;;;;;;5072023;28;1202;-69
2022/04/28 05:34:14;;;;;;;;;;;;;;;;;;5071718;28;1065;-69
2022/04/28 05:36:39;;;;;;;;;;;;;;;;;;5070702;28;879;-68
2022/04/28 05:39:05;;;;;;;;;;;;;;;;;;5071642;28;983;-69
2022/04/28 05:41:32;;;;;;;;;;;;;;;;;;5071841;28;837;-69
2022/04/28 05:46:41;;;;;;;;;;;;;;;;;;5070407;28;1969;-69
2022/04/28 05:49:06;;;;;;;;;;;;;;;;;;5070885;28;1121;-69
2022/04/28 05:51:32;;;;;;;;;;;;;;;;;;5071648;28;813;-69
2022/04/28 05:53:57;;;;;;;;;;;;;;;;;;5071950;28;1006;-69
2022/04/28 05:56:22;;;;;;;;;;;;;;;;;;5071411;28;994;-69
2022/04/28 05:58:48;;;;;;;;;;;;;;;;;;5071537;28;893;-69
2022/04/28 06:01:13;;;;;;;;;;;;;;;;;;5071580;28;754;-68
2022/04/28 06:03:40;;;;;;;;;;;;;;;;;;5071552;28;840;-69
2022/04/28 06:06:06;;;;;;;;;;;;;;;;;;5069003;28;2011;-69
2022/04/28 06:08:31;;;;;;;;;;;;;;;;;;5070549;28;916;-68
2022/04/28 06:10:57;;;;;;;;;;;;;;;;;;5071650;28;837;-69
2022/04/28 06:13:22;;;;;;;;;;;;;;;;;;5071611;28;1006;-70
2022/04/28 06:15:47;;;;;;;;;;;;;;;;;;5071445;28;1077;-70
2022/04/28 06:18:13;;;;;;;;;;;;;;;;;;5069479;28;1155;-70
2022/04/28 06:20:38;;;;;;;;;;;;;;;;;;5071621;28;944;-70
2022/04/28 06:23:03;;;;;;;;;;;;;;;;;;5071644;28;1065;-69
2022/04/28 06:25:30;;;;;;;;;;;;;;;;;;5071065;28;1902;-69
2022/04/28 06:27:55;;;;;;;;;;;;;;;;;;5069446;28;1288;-70
2022/04/28 06:30:20;;;;;;;;;;;;;;;;;;5071120;28;754;-69
2022/04/28 06:32:45;;;;;;;;;;;;;;;;;;5070881;28;817;-70
2022/04/28 06:35:11;;;;;;;;;;;;;;;;;;5069252;28;1214;-70
2022/04/28 06:37:36;;;;;;;;;;;;;;;;;;5069055;28;841;-70
2022/04/28 06:40:05;;;;;;;;;;;;;;;;;;5070468;28;891;-70
2022/04/28 06:42:30;;;;;;;;;;;;;;;;;;5070568;28;925;-70
2022/04/28 06:44:55;;;;;;;;;;;;;;;;;;5070363;28;1902;-70
2022/04/28 06:47:21;;;;;;;;;;;;;;;;;;5071161;28;904;-70
2022/04/28 06:49:46;;;;;;;;;;;;;;;;;;5069274;28;1475;-69
2022/04/28 06:52:12;;;;;;;;;;;;;;;;;;5070783;28;892;-70
2022/04/28 06:54:38;;;;;;;;;;;;;;;;;;5069112;28;1167;-69
2022/04/28 06:57:04;;;;;;;;;;;;;;;;;;5050485;28;1215;-69
2022/04/28 06:59:29;;;;;;;;;;;;;;;;;;5050697;28;910;-70
2022/04/28 07:01:54;;;;;;;;;;;;;;;;;;5049768;28;805;-69
2022/04/28 07:04:20;;;;;;;;;;;;;;;;;;5049783;28;837;-70
2022/04/28 07:06:45;;;;;;;;;;;;;;;;;;5050583;28;1961;-70
2022/04/28 07:09:10;;;;;;;;;;;;;;;;;;5050745;28;830;-69
2022/04/28 07:11:36;;;;;;;;;;;;;;;;;;5050813;28;868;-69
2022/04/28 07:14:01;;;;;;;;;;;;;;;;;;5050442;28;826;-69
2022/04/28 07:16:26;;;;;;;;;;;;;;;;;;5048762;28;1220;-69
2022/04/28 07:18:51;;;;;;;;;;;;;;;;;;5053157;28;1267;-69
2022/04/28 07:21:16;;;;;;;;;;;;;;;;;;5054712;28;856;-70
2022/04/28 07:23:42;;;;;;;;;;;;;;;;;;5053192;28;915;-69
2022/04/28 07:26:07;;;;;;;;;;;;;;;;;;5054032;28;1906;-69
2022/04/28 07:28:32;;;;;;;;;;;;;;;;;;5052408;28;1303;-69
2022/04/28 07:30:57;;;;;;;;;;;;;;;;;;5052769;28;778;-69
2022/04/28 07:33:23;;;;;;;;;;;;;;;;;;5036788;28;1374;-69
2022/04/28 07:35:48;;;;;;;;;;;;;;;;;;5054123;28;915;-69
2022/04/28 07:38:13;;;;;;;;;;;;;;;;;;5054227;28;900;-69
2022/04/28 07:40:39;;;;;;;;;;;;;;;;;;5052761;28;983;-69
2022/04/28 07:43:04;;;;;;;;;;;;;;;;;;5054192;28;847;-69
2022/04/28 07:45:29;;;;;;;;;;;;;;;;;;5053832;28;1898;-69
2022/04/28 07:47:54;;;;;;;;;;;;;;;;;;5052652;28;1127;-69
2022/04/28 07:50:20;;;;;;;;;;;;;;;;;;5036211;28;1337;-69
2022/04/28 07:52:45;;;;;;;;;;;;;;;;;;5053704;28;844;-69
2022/04/28 07:55:11;;;;;;;;;;;;;;;;;;5052462;28;841;-69
2022/04/28 07:57:36;;;;;;;;;;;;;;;;;;5052448;28;1194;-69
2022/04/28 08:00:03;;;;;;;;;;;;;;;;;;5053317;28;904;-69
2022/04/28 08:02:29;;;;;;;;;;;;;;;;;;5052170;28;1093;-69
2022/04/28 08:04:55;;;;;;;;;;;;;;;;;;5035083;28;1918;-69
2022/04/28 08:07:21;;;;;;;;;;;;;;;;;;5053537;28;976;-69
2022/04/28 08:09:46;;;;;;;;;;;;;;;;;;5053029;28;849;-69
2022/04/28 08:12:11;;;;;;;;;;;;;;;;;;5052792;28;908;-69
2022/04/28 08:14:37;;;;;;;;;;;;;;;;;;5052895;28;888;-68
2022/04/28 08:17:03;;;;;;;;;;;;;;;;;;5051529;28;785;-69
2022/04/28 08:19:28;;;;;;;;;;;;;;;;;;5051519;28;1183;-70
2022/04/28 08:21:53;;;;;;;;;;;;;;;;;;5063721;28;1580;-70
2022/04/28 08:24:19;;;;;;;;;;;;;;;;;;5054927;28;1171;-69
2022/04/28 08:26:44;;;;;;;;;;;;;;;;;;5072564;28;1965;-69
2022/04/28 08:29:10;;;;;;;;;;;;;;;;;;5071742;28;938;-69
2022/04/28 08:31:43;;;;;;;;;;;;;;;;;;5072526;28;889;-69
2022/04/28 08:34:08;;;;;;;;;;;;;;;;;;5073018;28;961;-69
2022/04/28 08:36:33;;;;;;;;;;;;;;;;;;5071256;28;1162;-70
2022/04/28 08:38:59;;;;;;;;;;;;;;;;;;5071013;28;1166;-69
2022/04/28 08:41:30;;;;;;;;;;;;;;;;;;5073189;28;813;-70
2022/04/28 08:43:58;;;;;;;;;;;;;;;;;;5070930;28;1380;-70
2022/04/28 08:49:10;;;;;;;;;;;;;;;;;;5073083;28;1290;-70
2022/04/28 08:51:37;;;;;;;;;;;;;;;;;;5072516;28;880;-70
2022/04/28 08:54:03;;;;;;;;;;;;;;;;;;5072528;28;1065;-70
2022/04/28 08:56:28;;;;;;;;;;;;;;;;;;5073404;28;844;-70
2022/04/28 08:58:54;;;;;;;;;;;;;;;;;;5072173;28;994;-70
2022/04/28 09:01:23;;;;;;;;;;;;;;;;;;5071330;28;981;-70
2022/04/28 09:03:48;;;;;;;;;;;;;;;;;;5072803;28;903;-70
2022/04/28 09:06:30;;;;;;;;;;;;;;;;;;5071939;28;1910;-70
2022/04/28 09:08:56;;;;;;;;;;;;;;;;;;5072216;28;781;-70
2022/04/28 09:11:22;;;;;;;;;;;;;;;;;;5072620;28;892;-68
2022/04/28 09:14:10;;;;;;;;;;;;;;;;;;5071634;28;879;-68
2022/04/28 09:16:42;;;;;;;;;;;;;;;;;;5072022;28;843;-69
2022/04/28 09:19:08;;;;;;;;;;;;;;;;;;5071719;28;813;-68
2022/04/28 09:21:34;;;;;;;;;;;;;;;;;;5071900;28;911;-66
2022/04/28 09:24:00;;;;;;;;;;;;;;;;;;5071200;28;777;-66
2022/04/28 09:26:25;;;;;;;;;;;;;;;;;;5071731;28;1965;-66
2022/04/28 09:28:51;;;;;;;;;;;;;;;;;;5069667;28;1333;-66
2022/04/28 09:31:17;;;;;;;;;;;;;;;;;;5070874;28;1244;-66
2022/04/28 09:33:44;;;;;;;;;;;;;;;;;;5069711;28;1529;-67
2022/04/28 09:36:10;;;;;;;;;;;;;;;;;;5070684;28;868;-67
2022/04/28 09:38:35;;;;;;;;;;;;;;;;;;5071456;28;1134;-69
2022/04/28 09:43:44;;;;;;;;;;;;;;;;;;5071932;28;705;-69
2022/04/28 09:46:10;;;;;;;;;;;;;;;;;;5069422;28;1918;-69
2022/04/28 09:48:36;;;;;;;;;;;;;;;;;;5071140;28;753;-69
2022/04/28 09:51:07;;;;;;;;;;;;;;;;;;5071064;28;1314;-69
2022/04/28 09:53:33;;;;;;;;;;;;;;;;;;5071582;28;769;-69
2022/04/28 09:56:00;;;;;;;;;;;;;;;;;;5069117;28;1190;-69
2022/04/28 09:58:27;;;;;;;;;;;;;;;;;;5070891;28;1049;-69
2022/04/28 10:00:52;;;;;;;;;;;;;;;;;;5070987;28;812;-69
2022/04/28 10:03:18;;;;;;;;;;;;;;;;;;5070756;28;829;-70
2022/04/28 10:05:44;;;;;;;;;;;;;;;;;;5070836;28;1906;-69
2022/04/28 10:08:09;;;;;;;;;;;;;;;;;;5069331;28;1013;-69
2022/04/28 10:10:35;;;;;;;;;;;;;;;;;;5070752;28;750;-70
2022/04/28 10:13:01;;;;;;;;;;;;;;;;;;5068615;28;1463;-69
2022/04/28 10:15:27;;;;;;;;;;;;;;;;;;5053159;28;1472;-69
2022/04/28 10:17:55;;;;;;;;;;;;;;;;;;5069281;28;1349;-69
2022/04/28 10:20:25;;;;;;;;;;;;;;;;;;5070830;28;1148;-69
2022/04/28 10:22:51;;;;;;;;;;;;;;;;;;5069186;28;1269;-70
2022/04/28 10:33:42;;;;;;;;;;;;;;;;;;5067622;28;1159;-69
2022/04/28 10:36:14;;;;;;;;;;;;;;;;;;5050533;28;1133;-69
2022/04/28 10:38:42;;;;;;;;;;;;;;;;;;5051473;28;900;-69
2022/04/28 10:41:08;;;;;;;;;;;;;;;;;;5050304;28;825;-70
2022/04/28 10:43:33;;;;;;;;;;;;;;;;;;5050970;28;849;-70
2022/04/28 10:46:08;;;;;;;;;;;;;;;;;;5049110;28;1906;-70
2022/04/28 10:48:33;;;;;;;;;;;;;;;;;;5050845;28;868;-69
2022/04/28 10:51:06;;;;;;;;;;;;;;;;;;5049945;28;1052;-70
2022/04/28 10:53:32;;;;;;;;;;;;;;;;;;5051814;28;1210;-69
2022/04/28 10:56:08;;;;;;;;;;;;;;;;;;5054082;28;1007;-69
2022/04/28 10:58:34;;;;;;;;;;;;;;;;;;5054702;28;999;-69
2022/04/28 11:01:00;;;;;;;;;;;;;;;;;;5052341;28;1293;-69
2022/04/28 11:03:46;;;;;;;;;;;;;;;;;;5054217;28;940;-69
2022/04/28 11:06:18;;;;;;;;;;;;;;;;;;5053819;28;1918;-69
2022/04/28 11:08:45;;;;;;;;;;;;;;;;;;5054314;28;828;-69
2022/04/28 11:11:12;;;;;;;;;;;;;;;;;;5054182;28;841;-69
2022/04/28 11:13:38;;;;;;;;;;;;;;;;;;5054462;28;848;-69
2022/04/28 11:16:03;;;;;;;;;;;;;;;;;;5052395;28;809;-70
2022/04/28 11:18:29;;;;;;;;;;;;;;;;;;5053334;28;1028;-70
2022/04/28 11:20:58;;;;;;;;;;;;;;;;;;5052370;28;904;-70
2022/04/28 11:23:24;;;;;;;;;;;;;;;;;;5054286;28;841;-69
2022/04/28 11:25:49;;;;;;;;;;;;;;;;;;5052318;28;1906;-69
2022/04/28 11:28:15;;;;;;;;;;;;;;;;;;5035477;28;1243;-69
2022/04/28 11:30:41;;;;;;;;;;;;;;;;;;5053780;28;789;-70
2022/04/28 11:33:09;;;;;;;;;;;;;;;;;;5051541;28;1392;-69
2022/04/28 11:35:36;;;;;;;;;;;;;;;;;;5053961;28;845;-69
2022/04/28 11:38:01;;;;;;;;;;;;;;;;;;5051583;28;1232;-70
2022/04/28 11:40:26;;;;;;;;;;;;;;;;;;5053068;28;999;-69
2022/04/28 11:42:58;;;;;;;;;;;;;;;;;;5053879;28;810;-70
2022/04/28 11:45:25;;;;;;;;;;;;;;;;;;5053388;28;1971;-69
2022/04/28 11:47:53;;;;;;;;;;;;;;;;;;5052334;28;1238;-69
2022/04/28 11:50:19;;;;;;;;;;;;;;;;;;5052809;28;1092;-70
2022/04/28 11:52:45;;;;;;;;;;;;;;;;;;5053344;28;888;-69
2022/04/28 11:55:11;;;;;;;;;;;;;;;;;;5052560;28;912;-69
2022/04/28 11:57:39;;;;;;;;;;;;;;;;;;5051573;28;1203;-70
2022/04/28 12:00:08;;;;;;;;;;;;;;;;;;5052791;28;903;-71
2022/04/28 12:02:34;;;;;;;;;;;;;;;;;;5053714;28;943;-70
2022/04/28 12:05:27;;;;;;;;;;;;;;;;;;5051732;28;1898;-70
2022/04/28 12:07:53;;;;;;;;;;;;;;;;;;5050666;28;1741;-70
2022/04/28 12:15:52;;;;;;;;;;;;;;;;;;5054382;28;637;-71
2022/04/28 12:21:13;;;;;;;;;;;;;;;;;;5053645;28;614;-70
2022/04/28 12:23:39;;;;;;;;;;;;;;;;;;5053152;28;1050;-71
2022/04/28 12:26:06;;;;;;;;;;;;;;;;;;5052524;28;1894;-71
2022/04/28 12:28:38;;;;;;;;;;;;;;;;;;5051521;28;1198;-71
2022/04/28 12:31:04;;;;;;;;;;;;;;;;;;5052768;28;1113;-71
2022/04/28 12:33:31;;;;;;;;;;;;;;;;;;5051094;28;1376;-71
2022/04/28 12:35:59;;;;;;;;;;;;;;;;;;5051978;28;881;-70
2022/04/28 12:38:28;;;;;;;;;;;;;;;;;;5053029;28;1476;-70
2022/04/28 12:40:54;;;;;;;;;;;;;;;;;;5054217;28;1281;-70
2022/04/28 12:43:39;;;;;;;;;;;;;;;;;;5054560;28;900;-70
2022/04/28 12:46:06;;;;;;;;;;;;;;;;;;5053896;28;1879;-70
2022/04/28 12:48:33;;;;;;;;;;;;;;;;;;5054087;28;896;-70
2022/04/28 12:51:15;;;;;;;;;;;;;;;;;;5054045;28;1290;-71
2022/04/28 12:53:41;;;;;;;;;;;;;;;;;;5054682;28;923;-70
2022/04/28 12:56:07;;;;;;;;;;;;;;;;;;5056259;28;845;-70
2022/04/28 12:58:54;;;;;;;;;;;;;;;;;;5056884;28;896;-71
2022/04/28 13:01:19;;;;;;;;;;;;;;;;;;5058053;28;1399;-70
2022/04/28 13:03:56;;;;;;;;;;;;;;;;;;5059676;28;836;-71
2022/04/28 13:06:25;;;;;;;;;;;;;;;;;;5055662;28;1894;-71
2022/04/28 13:08:51;;;;;;;;;;;;;;;;;;5051178;28;1309;-71
2022/04/28 13:11:28;;;;;;;;;;;;;;;;;;5050145;28;904;-71
2022/04/28 13:13:54;;;;;;;;;;;;;;;;;;5052341;28;829;-71
2022/04/28 13:16:20;;;;;;;;;;;;;;;;;;5050166;28;1035;-72
2022/04/28 13:18:45;;;;;;;;;;;;;;;;;;5051953;28;1081;-71
2022/04/28 13:21:12;;;;;;;;;;;;;;;;;;5051481;28;820;-71
2022/04/28 13:23:37;;;;;;;;;;;;;;;;;;5034144;28;1316;-70
2022/04/28 13:26:03;;;;;;;;;;;;;;;;;;5051490;28;1894;-71
2022/04/28 13:28:28;;;;;;;;;;;;;;;;;;5051464;28;841;-70
2022/04/28 13:30:53;;;;;;;;;;;;;;;;;;5051728;28;840;-71
2022/04/28 13:33:20;;;;;;;;;;;;;;;;;;5051648;28;746;-71
2022/04/28 13:35:46;;;;;;;;;;;;;;;;;;5050324;28;848;-71
2022/04/28 13:38:11;;;;;;;;;;;;;;;;;;5051463;28;908;-72
2022/04/28 13:40:37;;;;;;;;;;;;;;;;;;5052058;28;907;-71
2022/04/28 13:43:02;;;;;;;;;;;;;;;;;;5033512;28;1116;-71
2022/04/28 13:45:28;;;;;;;;;;;;;;;;;;5050267;28;1902;-71
2022/04/28 13:47:53;;;;;;;;;;;;;;;;;;5050605;28;1183;-71
2022/04/28 13:50:18;;;;;;;;;;;;;;;;;;5049966;28;1327;-71
2022/04/28 13:52:43;;;;;;;;;;;;;;;;;;5050513;28;1011;-72
2022/04/28 13:55:09;;;;;;;;;;;;;;;;;;5051545;28;927;-71
2022/04/28 13:57:34;;;;;;;;;;;;;;;;;;5051827;28;1097;-70
2022/04/28 14:00:00;;;;;;;;;;;;;;;;;;5052802;28;1228;-69
2022/04/28 14:02:25;;;;;;;;;;;;;;;;;;5051099;28;912;-68
2022/04/28 14:04:51;;;;;;;;;;;;;;;;;;5052738;28;1902;-69
2022/04/28 14:07:16;;;;;;;;;;;;;;;;;;5051423;28;892;-70
2022/04/28 14:09:42;;;;;;;;;;;;;;;;;;5051856;28;911;-71
2022/04/28 14:12:07;;;;;;;;;;;;;;;;;;5052150;28;781;-71
2022/04/28 14:14:33;;;;;;;;;;;;;;;;;;5050971;28;1301;-71
2022/04/28 14:16:58;;;;;;;;;;;;;;;;;;5051721;28;1047;-70
2022/04/28 14:19:23;;;;;;;;;;;;;;;;;;5051871;28;777;-69
2022/04/28 14:21:49;;;;;;;;;;;;;;;;;;5050445;28;821;-71
2022/04/28 14:24:14;;;;;;;;;;;;;;;;;;5050332;28;766;-71
2022/04/28 14:26:39;;;;;;;;;;;;;;;;;;5049873;28;1906;-68
2022/04/28 14:29:04;;;;;;;;;;;;;;;;;;5054876;28;829;-70
2022/04/28 14:31:30;;;;;;;;;;;;;;;;;;5055426;28;809;-71
2022/04/28 14:33:55;;;;;;;;;;;;;;;;;;5037292;28;1235;-69
2022/04/28 14:36:20;;;;;;;;;;;;;;;;;;5055113;28;875;-69
2022/04/28 14:38:45;;;;;;;;;;;;;;;;;;5057034;28;841;-71
2022/04/28 14:41:11;;;;;;;;;;;;;;;;;;5051420;28;1210;-71
2022/04/28 14:43:36;;;;;;;;;;;;;;;;;;5054340;28;983;-70
2022/04/28 14:46:01;;;;;;;;;;;;;;;;;;5054149;28;1949;-71
2022/04/28 14:48:27;;;;;;;;;;;;;;;;;;5054662;28;987;-71
2022/04/28 14:53:36;;;;;;;;;;;;;;;;;;5054254;28;705;-71
2022/04/28 14:56:01;;;;;;;;;;;;;;;;;;5054465;28;892;-70
2022/04/28 14:58:26;;;;;;;;;;;;;;;;;;5053026;28;1231;-70
2022/04/28 15:00:52;;;;;;;;;;;;;;;;;;5053404;28;813;-70
2022/04/28 15:03:18;;;;;;;;;;;;;;;;;;5054108;28;1015;-70
2022/04/28 15:05:43;;;;;;;;;;;;;;;;;;5052648;28;1985;-69
2022/04/28 15:08:09;;;;;;;;;;;;;;;;;;5053841;28;884;-70
2022/04/28 15:10:34;;;;;;;;;;;;;;;;;;5052606;28;1190;-70
2022/04/28 15:13:01;;;;;;;;;;;;;;;;;;5053879;28;856;-70
2022/04/28 15:15:26;;;;;;;;;;;;;;;;;;5053151;28;1325;-70
2022/04/28 15:17:52;;;;;;;;;;;;;;;;;;5053470;28;1155;-70
2022/04/28 15:20:17;;;;;;;;;;;;;;;;;;5053355;28;1242;-71
2022/04/28 15:22:43;;;;;;;;;;;;;;;;;;5054752;28;931;-71
2022/04/28 15:25:09;;;;;;;;;;;;;;;;;;5054417;28;1906;-70
2022/04/28 15:27:34;;;;;;;;;;;;;;;;;;5055863;28;812;-70
2022/04/28 15:30:00;;;;;;;;;;;;;;;;;;5054497;28;885;-69
2022/04/28 15:32:25;;;;;;;;;;;;;;;;;;5053521;28;1357;-70
2022/04/28 15:34:50;;;;;;;;;;;;;;;;;;5054262;28;841;-70
2022/04/28 15:37:15;;;;;;;;;;;;;;;;;;5052757;28;1182;-70
2022/04/28 15:39:41;;;;;;;;;;;;;;;;;;5053282;28;887;-70
2022/04/28 15:42:06;;;;;;;;;;;;;;;;;;5053812;28;888;-70
2022/04/28 15:44:31;;;;;;;;;;;;;;;;;;5053800;28;955;-70
2022/04/28 15:46:57;;;;;;;;;;;;;;;;;;5053768;28;1947;-70
2022/04/28 15:49:22;;;;;;;;;;;;;;;;;;5036276;28;1185;-70
2022/04/28 15:51:47;;;;;;;;;;;;;;;;;;5051524;28;929;-70
2022/04/28 15:54:13;;;;;;;;;;;;;;;;;;5052686;28;845;-70
2022/04/28 15:56:39;;;;;;;;;;;;;;;;;;5053859;28;880;-70
2022/04/28 15:59:05;;;;;;;;;;;;;;;;;;5053387;28;916;-70
2022/04/28 16:01:31;;;;;;;;;;;;;;;;;;5052263;28;916;-70
2022/04/28 16:03:57;;;;;;;;;;;;;;;;;;5053873;28;884;-70
2022/04/28 16:06:23;;;;;;;;;;;;;;;;;;5053587;28;1906;-70
2022/04/28 16:08:48;;;;;;;;;;;;;;;;;;5053134;28;837;-70
2022/04/28 16:11:14;;;;;;;;;;;;;;;;;;5053013;28;892;-70
2022/04/28 16:13:40;;;;;;;;;;;;;;;;;;5051545;28;909;-70
2022/04/28 16:16:05;;;;;;;;;;;;;;;;;;5034828;28;1392;-69
2022/04/28 16:18:31;;;;;;;;;;;;;;;;;;5051770;28;1429;-70
2022/04/28 16:20:56;;;;;;;;;;;;;;;;;;5052892;28;904;-70
2022/04/28 16:23:21;;;;;;;;;;;;;;;;;;5053202;28;1027;-70
2022/04/28 16:25:47;;;;;;;;;;;;;;;;;;5053018;28;1952;-70
2022/04/28 16:28:12;;;;;;;;;;;;;;;;;;5053200;28;814;-70
2022/04/28 16:30:39;;;;;;;;;;;;;;;;;;5035183;28;1207;-69
2022/04/28 16:33:05;;;;;;;;;;;;;;;;;;5053010;28;766;-70
2022/04/28 16:35:30;;;;;;;;;;;;;;;;;;5052812;28;817;-70
2022/04/28 16:37:59;;;;;;;;;;;;;;;;;;5052679;28;829;-69
2022/04/28 16:40:24;;;;;;;;;;;;;;;;;;5051737;28;1411;-70
2022/04/28 16:42:50;;;;;;;;;;;;;;;;;;5051348;28;915;-70
2022/04/28 16:45:15;;;;;;;;;;;;;;;;;;5052268;28;1945;-70
2022/04/28 16:47:40;;;;;;;;;;;;;;;;;;5052076;28;927;-70
2022/04/28 16:50:06;;;;;;;;;;;;;;;;;;5051302;28;1066;-70
2022/04/28 16:52:31;;;;;;;;;;;;;;;;;;5051941;28;931;-70
2022/04/28 16:54:57;;;;;;;;;;;;;;;;;;5051957;28;888;-70
2022/04/28 16:57:23;;;;;;;;;;;;;;;;;;5050978;28;852;-70
2022/04/28 16:59:49;;;;;;;;;;;;;;;;;;5051004;28;907;-70
2022/04/28 17:02:14;;;;;;;;;;;;;;;;;;5052417;28;860;-70
2022/04/28 17:04:40;;;;;;;;;;;;;;;;;;5051916;28;849;-70
2022/04/28 17:07:06;;;;;;;;;;;;;;;;;;5050202;28;2276;-70
2022/04/28 17:09:34;;;;;;;;;;;;;;;;;;5051978;28;861;-70
2022/04/28 17:12:01;;;;;;;;;;;;;;;;;;5051355;28;841;-69
2022/04/28 17:14:27;;;;;;;;;;;;;;;;;;5052059;28;908;-70
2022/04/28 17:16:52;;;;;;;;;;;;;;;;;;5052042;28;857;-70
2022/04/28 17:19:18;;;;;;;;;;;;;;;;;;5051910;28;896;-70
2022/04/28 17:21:45;;;;;;;;;;;;;;;;;;5051389;28;907;-70
2022/04/28 17:24:12;;;;;;;;;;;;;;;;;;5051069;28;797;-70
2022/04/28 17:26:40;;;;;;;;;;;;;;;;;;5051733;28;1953;-70
2022/04/28 17:29:05;;;;;;;;;;;;;;;;;;5051509;28;794;-70
2022/04/28 17:31:31;;;;;;;;;;;;;;;;;;5050020;28;887;-70
2022/04/28 17:33:57;;;;;;;;;;;;;;;;;;5050320;28;809;-70
2022/04/28 17:36:22;;;;;;;;;;;;;;;;;;5051677;28;770;-69
2022/04/28 17:38:47;;;;;;;;;;;;;;;;;;5051345;28;892;-70
2022/04/28 17:41:12;;;;;;;;;;;;;;;;;;5050079;28;834;-70
2022/04/28 17:43:39;;;;;;;;;;;;;;;;;;5050415;28;1258;-70
2022/04/28 17:46:04;;;;;;;;;;;;;;;;;;5048933;28;1909;-69
2022/04/28 17:48:30;;;;;;;;;;;;;;;;;;5051221;28;880;-69